sensor_id;sensor_type;location;lat;lon;timestamp;P1;durP1;ratioP1;P2;durP2;ratioP2
68457;SDS011;65384;52.016;5.428;2023-02-20T00:00:08;17.40;;;6.72;;
68457;SDS011;65384;52.016;5.428;2023-02-20T00:02:35;16.08;;;6.55;;
68457;SDS011;65384;52.016;5.428;2023-02-20T00:05:01;16.85;;;7.07;;
68457;SDS011;65384;52.016;5.428;2023-02-20T00:07:26;15.35;;;7.07;;
68457;SDS011;65384;52.016;5.428;2023-02-20T00:09:51;17.38;;;7.47;;
68457;SDS011;65384;52.016;5.428;2023-02-20T00:12:17;17.63;;;7.93;;
68457;SDS011;65384;52.016;5.428;2023-02-20T00:14:42;18.88;;;7.63;;
68457;SDS011;65384;52.016;5.428;2023-02-20T00:17:07;17.05;;;8.07;;
68457;SDS011;65384;52.016;5.428;2023-02-20T00:19:33;17.73;;;8.10;;
68457;SDS011;65384;52.016;5.428;2023-02-20T00:21:58;19.60;;;8.60;;
68457;SDS011;65384;52.016;5.428;2023-02-20T00:24:23;17.98;;;7.97;;
68457;SDS011;65384;52.016;5.428;2023-02-20T00:26:50;20.00;;;8.63;;
68457;SDS011;65384;52.016;5.428;2023-02-20T00:29:21;21.25;;;9.20;;
68457;SDS011;65384;52.016;5.428;2023-02-20T00:31:54;20.63;;;8.75;;
68457;SDS011;65384;52.016;5.428;2023-02-20T00:34:20;22.55;;;9.63;;
68457;SDS011;65384;52.016;5.428;2023-02-20T00:36:46;23.40;;;9.20;;
68457;SDS011;65384;52.016;5.428;2023-02-20T00:39:12;21.65;;;9.27;;
68457;SDS011;65384;52.016;5.428;2023-02-20T00:41:38;29.17;;;10.38;;
68457;SDS011;65384;52.016;5.428;2023-02-20T00:44:03;19.60;;;9.55;;
68457;SDS011;65384;52.016;5.428;2023-02-20T00:46:28;24.00;;;10.48;;
68457;SDS011;65384;52.016;5.428;2023-02-20T00:48:54;22.88;;;10.35;;
68457;SDS011;65384;52.016;5.428;2023-02-20T00:51:19;23.58;;;10.55;;
68457;SDS011;65384;52.016;5.428;2023-02-20T00:53:44;22.23;;;10.82;;
68457;SDS011;65384;52.016;5.428;2023-02-20T00:56:10;24.23;;;10.63;;
68457;SDS011;65384;52.016;5.428;2023-02-20T00:58:35;23.88;;;10.88;;
68457;SDS011;65384;52.016;5.428;2023-02-20T01:01:00;22.65;;;10.38;;
68457;SDS011;65384;52.016;5.428;2023-02-20T01:03:26;23.77;;;10.57;;
68457;SDS011;65384;52.016;5.428;2023-02-20T01:05:51;20.85;;;9.55;;
68457;SDS011;65384;52.016;5.428;2023-02-20T01:08:16;22.88;;;10.27;;
68457;SDS011;65384;52.016;5.428;2023-02-20T01:10:42;19.55;;;10.23;;
68457;SDS011;65384;52.016;5.428;2023-02-20T01:13:07;24.75;;;8.75;;
68457;SDS011;65384;52.016;5.428;2023-02-20T01:15:32;23.27;;;9.73;;
68457;SDS011;65384;52.016;5.428;2023-02-20T01:17:58;21.50;;;8.88;;
68457;SDS011;65384;52.016;5.428;2023-02-20T01:20:23;19.98;;;9.32;;
68457;SDS011;65384;52.016;5.428;2023-02-20T01:22:49;23.00;;;9.50;;
68457;SDS011;65384;52.016;5.428;2023-02-20T01:25:14;18.38;;;8.48;;
68457;SDS011;65384;52.016;5.428;2023-02-20T01:27:39;15.50;;;7.15;;
68457;SDS011;65384;52.016;5.428;2023-02-20T01:30:05;30.55;;;10.07;;
68457;SDS011;65384;52.016;5.428;2023-02-20T01:32:31;21.50;;;9.95;;
68457;SDS011;65384;52.016;5.428;2023-02-20T01:34:57;21.15;;;9.60;;
68457;SDS011;65384;52.016;5.428;2023-02-20T01:37:22;20.63;;;7.80;;
68457;SDS011;65384;52.016;5.428;2023-02-20T01:39:48;22.58;;;10.25;;
68457;SDS011;65384;52.016;5.428;2023-02-20T01:42:31;21.95;;;10.50;;
68457;SDS011;65384;52.016;5.428;2023-02-20T01:45:13;24.77;;;9.25;;
68457;SDS011;65384;52.016;5.428;2023-02-20T01:47:51;24.52;;;10.00;;
68457;SDS011;65384;52.016;5.428;2023-02-20T01:50:20;21.40;;;8.83;;
68457;SDS011;65384;52.016;5.428;2023-02-20T01:52:49;21.02;;;9.90;;
68457;SDS011;65384;52.016;5.428;2023-02-20T01:55:17;23.77;;;10.73;;
68457;SDS011;65384;52.016;5.428;2023-02-20T01:57:49;26.75;;;10.23;;
68457;SDS011;65384;52.016;5.428;2023-02-20T02:00:18;27.58;;;9.82;;
68457;SDS011;65384;52.016;5.428;2023-02-20T02:02:47;21.08;;;10.07;;
68457;SDS011;65384;52.016;5.428;2023-02-20T02:05:14;25.52;;;10.70;;
68457;SDS011;65384;52.016;5.428;2023-02-20T02:07:41;23.08;;;9.85;;
68457;SDS011;65384;52.016;5.428;2023-02-20T02:10:11;24.90;;;10.10;;
68457;SDS011;65384;52.016;5.428;2023-02-20T02:12:38;22.05;;;9.30;;
68457;SDS011;65384;52.016;5.428;2023-02-20T02:15:13;25.80;;;10.00;;
68457;SDS011;65384;52.016;5.428;2023-02-20T02:26:01;30.17;;;11.05;;
68457;SDS011;65384;52.016;5.428;2023-02-20T02:37:33;27.98;;;12.18;;
68457;SDS011;65384;52.016;5.428;2023-02-20T02:45:39;37.78;;;13.52;;
68457;SDS011;65384;52.016;5.428;2023-02-20T02:50:47;32.10;;;14.25;;
68457;SDS011;65384;52.016;5.428;2023-02-20T02:53:13;37.03;;;14.10;;
68457;SDS011;65384;52.016;5.428;2023-02-20T02:55:39;35.75;;;13.77;;
68457;SDS011;65384;52.016;5.428;2023-02-20T02:58:05;35.88;;;14.80;;
68457;SDS011;65384;52.016;5.428;2023-02-20T03:00:32;32.70;;;14.00;;
68457;SDS011;65384;52.016;5.428;2023-02-20T03:11:04;37.60;;;15.27;;
68457;SDS011;65384;52.016;5.428;2023-02-20T03:13:48;43.10;;;14.05;;
68457;SDS011;65384;52.016;5.428;2023-02-20T03:16:41;45.10;;;15.30;;
68457;SDS011;65384;52.016;5.428;2023-02-20T03:19:11;32.60;;;12.93;;
68457;SDS011;65384;52.016;5.428;2023-02-20T03:21:38;36.97;;;13.85;;
68457;SDS011;65384;52.016;5.428;2023-02-20T03:24:05;40.28;;;14.73;;
68457;SDS011;65384;52.016;5.428;2023-02-20T03:26:33;44.00;;;15.32;;
68457;SDS011;65384;52.016;5.428;2023-02-20T03:31:32;36.63;;;15.02;;
68457;SDS011;65384;52.016;5.428;2023-02-20T03:34:08;33.28;;;13.13;;
68457;SDS011;65384;52.016;5.428;2023-02-20T03:37:02;36.38;;;14.77;;
68457;SDS011;65384;52.016;5.428;2023-02-20T03:39:50;44.77;;;15.33;;
68457;SDS011;65384;52.016;5.428;2023-02-20T03:42:37;35.47;;;13.63;;
68457;SDS011;65384;52.016;5.428;2023-02-20T03:45:23;40.60;;;13.43;;
68457;SDS011;65384;52.016;5.428;2023-02-20T03:47:51;38.67;;;13.93;;
68457;SDS011;65384;52.016;5.428;2023-02-20T03:50:18;34.80;;;12.55;;
68457;SDS011;65384;52.016;5.428;2023-02-20T03:53:02;42.83;;;13.70;;
68457;SDS011;65384;52.016;5.428;2023-02-20T03:55:28;37.67;;;13.57;;
68457;SDS011;65384;52.016;5.428;2023-02-20T03:57:54;36.60;;;12.90;;
68457;SDS011;65384;52.016;5.428;2023-02-20T04:00:24;36.30;;;13.38;;
68457;SDS011;65384;52.016;5.428;2023-02-20T04:02:53;34.97;;;13.65;;
68457;SDS011;65384;52.016;5.428;2023-02-20T04:05:22;38.22;;;13.20;;
68457;SDS011;65384;52.016;5.428;2023-02-20T04:07:57;39.45;;;13.55;;
68457;SDS011;65384;52.016;5.428;2023-02-20T04:10:26;37.67;;;13.32;;
68457;SDS011;65384;52.016;5.428;2023-02-20T04:12:54;43.78;;;14.20;;
68457;SDS011;65384;52.016;5.428;2023-02-20T04:15:21;41.10;;;14.05;;
68457;SDS011;65384;52.016;5.428;2023-02-20T04:17:52;39.65;;;13.40;;
68457;SDS011;65384;52.016;5.428;2023-02-20T04:20:19;40.83;;;12.98;;
68457;SDS011;65384;52.016;5.428;2023-02-20T04:22:46;40.95;;;13.10;;
68457;SDS011;65384;52.016;5.428;2023-02-20T04:27:58;37.58;;;13.20;;
68457;SDS011;65384;52.016;5.428;2023-02-20T04:30:23;34.92;;;13.60;;
68457;SDS011;65384;52.016;5.428;2023-02-20T04:32:49;42.83;;;14.15;;
68457;SDS011;65384;52.016;5.428;2023-02-20T04:35:15;32.80;;;10.75;;
68457;SDS011;65384;52.016;5.428;2023-02-20T04:37:42;41.35;;;13.05;;
68457;SDS011;65384;52.016;5.428;2023-02-20T04:40:08;41.60;;;13.27;;
68457;SDS011;65384;52.016;5.428;2023-02-20T04:42:34;39.78;;;13.82;;
68457;SDS011;65384;52.016;5.428;2023-02-20T04:45:00;42.28;;;13.23;;
68457;SDS011;65384;52.016;5.428;2023-02-20T04:47:25;41.83;;;13.73;;
68457;SDS011;65384;52.016;5.428;2023-02-20T04:49:50;39.65;;;12.43;;
68457;SDS011;65384;52.016;5.428;2023-02-20T04:52:16;39.70;;;13.02;;
68457;SDS011;65384;52.016;5.428;2023-02-20T04:54:41;37.70;;;12.30;;
68457;SDS011;65384;52.016;5.428;2023-02-20T04:57:06;38.17;;;12.63;;
68457;SDS011;65384;52.016;5.428;2023-02-20T04:59:32;40.38;;;12.07;;
68457;SDS011;65384;52.016;5.428;2023-02-20T05:01:57;39.60;;;13.65;;
68457;SDS011;65384;52.016;5.428;2023-02-20T05:04:25;37.00;;;12.55;;
68457;SDS011;65384;52.016;5.428;2023-02-20T05:06:51;31.70;;;10.98;;
68457;SDS011;65384;52.016;5.428;2023-02-20T05:09:17;40.30;;;12.23;;
68457;SDS011;65384;52.016;5.428;2023-02-20T05:11:44;39.60;;;12.13;;
68457;SDS011;65384;52.016;5.428;2023-02-20T05:14:09;38.40;;;12.15;;
68457;SDS011;65384;52.016;5.428;2023-02-20T05:16:38;42.45;;;12.98;;
68457;SDS011;65384;52.016;5.428;2023-02-20T05:19:05;36.25;;;12.90;;
68457;SDS011;65384;52.016;5.428;2023-02-20T05:21:31;36.58;;;11.27;;
68457;SDS011;65384;52.016;5.428;2023-02-20T05:24:16;37.65;;;11.70;;
68457;SDS011;65384;52.016;5.428;2023-02-20T05:26:41;36.90;;;10.93;;
68457;SDS011;65384;52.016;5.428;2023-02-20T05:29:07;33.85;;;11.25;;
68457;SDS011;65384;52.016;5.428;2023-02-20T05:31:34;35.13;;;11.15;;
68457;SDS011;65384;52.016;5.428;2023-02-20T05:33:59;32.28;;;9.60;;
68457;SDS011;65384;52.016;5.428;2023-02-20T05:36:25;32.35;;;10.90;;
68457;SDS011;65384;52.016;5.428;2023-02-20T05:38:50;35.63;;;10.65;;
68457;SDS011;65384;52.016;5.428;2023-02-20T05:41:15;33.88;;;11.10;;
68457;SDS011;65384;52.016;5.428;2023-02-20T05:43:41;35.60;;;10.48;;
68457;SDS011;65384;52.016;5.428;2023-02-20T05:46:06;31.23;;;9.85;;
68457;SDS011;65384;52.016;5.428;2023-02-20T05:48:32;33.55;;;9.85;;
68457;SDS011;65384;52.016;5.428;2023-02-20T05:50:57;31.70;;;9.95;;
68457;SDS011;65384;52.016;5.428;2023-02-20T05:53:23;32.47;;;9.95;;
68457;SDS011;65384;52.016;5.428;2023-02-20T05:55:51;29.55;;;9.15;;
68457;SDS011;65384;52.016;5.428;2023-02-20T05:58:16;26.35;;;9.05;;
68457;SDS011;65384;52.016;5.428;2023-02-20T06:00:41;27.75;;;9.13;;
68457;SDS011;65384;52.016;5.428;2023-02-20T06:03:07;32.60;;;8.85;;
68457;SDS011;65384;52.016;5.428;2023-02-20T06:05:34;21.45;;;7.30;;
68457;SDS011;65384;52.016;5.428;2023-02-20T06:07:59;29.17;;;8.95;;
68457;SDS011;65384;52.016;5.428;2023-02-20T06:10:25;28.77;;;8.18;;
68457;SDS011;65384;52.016;5.428;2023-02-20T06:12:50;24.63;;;8.35;;
68457;SDS011;65384;52.016;5.428;2023-02-20T06:15:15;26.98;;;8.13;;
68457;SDS011;65384;52.016;5.428;2023-02-20T06:17:41;24.95;;;7.60;;
68457;SDS011;65384;52.016;5.428;2023-02-20T06:20:06;24.05;;;7.18;;
68457;SDS011;65384;52.016;5.428;2023-02-20T06:22:32;18.95;;;7.13;;
68457;SDS011;65384;52.016;5.428;2023-02-20T06:24:57;27.45;;;6.57;;
68457;SDS011;65384;52.016;5.428;2023-02-20T06:27:23;27.40;;;6.60;;
68457;SDS011;65384;52.016;5.428;2023-02-20T06:29:48;21.63;;;7.38;;
68457;SDS011;65384;52.016;5.428;2023-02-20T06:32:14;22.23;;;7.03;;
68457;SDS011;65384;52.016;5.428;2023-02-20T06:34:40;21.75;;;6.30;;
68457;SDS011;65384;52.016;5.428;2023-02-20T06:37:05;20.25;;;6.28;;
68457;SDS011;65384;52.016;5.428;2023-02-20T06:39:31;21.73;;;5.90;;
68457;SDS011;65384;52.016;5.428;2023-02-20T06:41:56;25.17;;;6.15;;
68457;SDS011;65384;52.016;5.428;2023-02-20T06:44:22;19.88;;;6.20;;
68457;SDS011;65384;52.016;5.428;2023-02-20T06:46:47;30.80;;;7.43;;
68457;SDS011;65384;52.016;5.428;2023-02-20T06:49:13;24.13;;;6.97;;
68457;SDS011;65384;52.016;5.428;2023-02-20T06:51:39;20.17;;;6.35;;
68457;SDS011;65384;52.016;5.428;2023-02-20T06:54:05;23.02;;;6.10;;
68457;SDS011;65384;52.016;5.428;2023-02-20T06:56:32;20.15;;;5.13;;
68457;SDS011;65384;52.016;5.428;2023-02-20T06:58:59;20.15;;;5.72;;
68457;SDS011;65384;52.016;5.428;2023-02-20T07:01:26;20.02;;;5.88;;
68457;SDS011;65384;52.016;5.428;2023-02-20T07:03:52;19.38;;;5.57;;
68457;SDS011;65384;52.016;5.428;2023-02-20T07:06:19;21.02;;;5.20;;
68457;SDS011;65384;52.016;5.428;2023-02-20T07:08:45;18.85;;;5.75;;
68457;SDS011;65384;52.016;5.428;2023-02-20T07:11:11;16.60;;;4.90;;
68457;SDS011;65384;52.016;5.428;2023-02-20T07:13:37;16.45;;;5.78;;
68457;SDS011;65384;52.016;5.428;2023-02-20T07:16:02;33.83;;;6.70;;
68457;SDS011;65384;52.016;5.428;2023-02-20T07:18:28;17.65;;;5.25;;
68457;SDS011;65384;52.016;5.428;2023-02-20T07:20:53;19.65;;;5.18;;
68457;SDS011;65384;52.016;5.428;2023-02-20T07:23:19;19.52;;;5.00;;
68457;SDS011;65384;52.016;5.428;2023-02-20T07:25:45;25.80;;;5.40;;
68457;SDS011;65384;52.016;5.428;2023-02-20T07:28:11;19.90;;;5.28;;
68457;SDS011;65384;52.016;5.428;2023-02-20T07:30:37;28.38;;;5.57;;
68457;SDS011;65384;52.016;5.428;2023-02-20T07:33:02;17.00;;;5.13;;
68457;SDS011;65384;52.016;5.428;2023-02-20T07:35:28;18.25;;;5.38;;
68457;SDS011;65384;52.016;5.428;2023-02-20T07:37:53;18.60;;;4.75;;
68457;SDS011;65384;52.016;5.428;2023-02-20T07:40:18;15.00;;;5.20;;
68457;SDS011;65384;52.016;5.428;2023-02-20T07:42:44;14.50;;;4.22;;
68457;SDS011;65384;52.016;5.428;2023-02-20T07:45:09;28.15;;;5.65;;
68457;SDS011;65384;52.016;5.428;2023-02-20T07:47:36;17.60;;;4.75;;
68457;SDS011;65384;52.016;5.428;2023-02-20T07:50:02;23.92;;;5.45;;
68457;SDS011;65384;52.016;5.428;2023-02-20T07:52:27;24.27;;;6.10;;
68457;SDS011;65384;52.016;5.428;2023-02-20T07:54:53;27.80;;;6.00;;
68457;SDS011;65384;52.016;5.428;2023-02-20T07:57:18;22.77;;;5.65;;
68457;SDS011;65384;52.016;5.428;2023-02-20T07:59:43;24.98;;;5.63;;
68457;SDS011;65384;52.016;5.428;2023-02-20T08:02:09;23.02;;;5.50;;
68457;SDS011;65384;52.016;5.428;2023-02-20T08:04:34;23.95;;;5.85;;
68457;SDS011;65384;52.016;5.428;2023-02-20T08:06:59;19.48;;;5.32;;
68457;SDS011;65384;52.016;5.428;2023-02-20T08:09:25;20.05;;;5.82;;
68457;SDS011;65384;52.016;5.428;2023-02-20T08:11:50;21.42;;;6.78;;
68457;SDS011;65384;52.016;5.428;2023-02-20T08:14:15;22.75;;;6.63;;
68457;SDS011;65384;52.016;5.428;2023-02-20T08:16:41;21.45;;;6.40;;
68457;SDS011;65384;52.016;5.428;2023-02-20T08:19:06;18.92;;;6.00;;
68457;SDS011;65384;52.016;5.428;2023-02-20T08:21:31;29.98;;;7.38;;
68457;SDS011;65384;52.016;5.428;2023-02-20T08:23:57;18.05;;;5.93;;
68457;SDS011;65384;52.016;5.428;2023-02-20T08:26:22;25.00;;;6.63;;
68457;SDS011;65384;52.016;5.428;2023-02-20T08:28:48;15.98;;;5.75;;
68457;SDS011;65384;52.016;5.428;2023-02-20T08:31:14;20.33;;;6.55;;
68457;SDS011;65384;52.016;5.428;2023-02-20T08:33:40;24.63;;;6.28;;
68457;SDS011;65384;52.016;5.428;2023-02-20T08:36:05;19.48;;;5.93;;
68457;SDS011;65384;52.016;5.428;2023-02-20T08:40:58;24.90;;;5.97;;
68457;SDS011;65384;52.016;5.428;2023-02-20T08:43:26;20.50;;;6.30;;
68457;SDS011;65384;52.016;5.428;2023-02-20T08:45:51;20.48;;;6.13;;
68457;SDS011;65384;52.016;5.428;2023-02-20T08:48:17;17.42;;;5.38;;
68457;SDS011;65384;52.016;5.428;2023-02-20T08:50:42;19.75;;;5.57;;
68457;SDS011;65384;52.016;5.428;2023-02-20T08:53:07;18.13;;;5.60;;
68457;SDS011;65384;52.016;5.428;2023-02-20T08:55:33;16.65;;;5.30;;
68457;SDS011;65384;52.016;5.428;2023-02-20T08:57:58;16.05;;;5.28;;
68457;SDS011;65384;52.016;5.428;2023-02-20T09:00:23;19.33;;;5.45;;
68457;SDS011;65384;52.016;5.428;2023-02-20T09:02:49;22.48;;;5.78;;
68457;SDS011;65384;52.016;5.428;2023-02-20T09:05:15;19.45;;;5.43;;
68457;SDS011;65384;52.016;5.428;2023-02-20T09:07:41;16.90;;;5.93;;
68457;SDS011;65384;52.016;5.428;2023-02-20T09:10:06;19.70;;;5.53;;
68457;SDS011;65384;52.016;5.428;2023-02-20T09:12:32;23.30;;;6.10;;
68457;SDS011;65384;52.016;5.428;2023-02-20T09:14:57;17.95;;;6.05;;
68457;SDS011;65384;52.016;5.428;2023-02-20T09:17:26;20.42;;;5.63;;
68457;SDS011;65384;52.016;5.428;2023-02-20T09:19:52;20.02;;;5.85;;
68457;SDS011;65384;52.016;5.428;2023-02-20T09:22:21;20.00;;;5.38;;
68457;SDS011;65384;52.016;5.428;2023-02-20T09:24:47;17.65;;;5.10;;
68457;SDS011;65384;52.016;5.428;2023-02-20T09:27:13;17.73;;;4.88;;
68457;SDS011;65384;52.016;5.428;2023-02-20T09:29:38;20.63;;;4.97;;
68457;SDS011;65384;52.016;5.428;2023-02-20T09:32:05;18.23;;;4.30;;
68457;SDS011;65384;52.016;5.428;2023-02-20T09:34:30;22.80;;;6.07;;
68457;SDS011;65384;52.016;5.428;2023-02-20T09:36:56;19.42;;;5.47;;
68457;SDS011;65384;52.016;5.428;2023-02-20T09:39:21;15.55;;;4.85;;
68457;SDS011;65384;52.016;5.428;2023-02-20T09:47:26;15.57;;;4.50;;
68457;SDS011;65384;52.016;5.428;2023-02-20T09:49:58;15.48;;;4.22;;
68457;SDS011;65384;52.016;5.428;2023-02-20T09:52:25;14.10;;;5.10;;
68457;SDS011;65384;52.016;5.428;2023-02-20T09:54:52;21.80;;;5.47;;
68457;SDS011;65384;52.016;5.428;2023-02-20T09:57:21;16.73;;;5.38;;
68457;SDS011;65384;52.016;5.428;2023-02-20T09:59:52;20.85;;;5.97;;
68457;SDS011;65384;52.016;5.428;2023-02-20T10:04:48;21.13;;;5.47;;
68457;SDS011;65384;52.016;5.428;2023-02-20T10:09:45;19.08;;;6.05;;
68457;SDS011;65384;52.016;5.428;2023-02-20T10:25:57;13.68;;;5.72;;
68457;SDS011;65384;52.016;5.428;2023-02-20T10:28:24;21.13;;;5.85;;
68457;SDS011;65384;52.016;5.428;2023-02-20T10:30:59;24.60;;;6.30;;
68457;SDS011;65384;52.016;5.428;2023-02-20T10:33:34;20.95;;;6.75;;
68457;SDS011;65384;52.016;5.428;2023-02-20T10:38:34;15.10;;;5.90;;
68457;SDS011;65384;52.016;5.428;2023-02-20T10:41:08;19.70;;;6.70;;
68457;SDS011;65384;52.016;5.428;2023-02-20T10:43:55;21.00;;;6.65;;
68457;SDS011;65384;52.016;5.428;2023-02-20T10:49:34;19.48;;;6.88;;
68457;SDS011;65384;52.016;5.428;2023-02-20T10:52:01;16.67;;;6.28;;
68457;SDS011;65384;52.016;5.428;2023-02-20T10:57:08;19.65;;;6.22;;
68457;SDS011;65384;52.016;5.428;2023-02-20T10:59:58;16.52;;;5.90;;
68457;SDS011;65384;52.016;5.428;2023-02-20T11:02:43;14.70;;;4.95;;
68457;SDS011;65384;52.016;5.428;2023-02-20T11:05:12;17.23;;;6.00;;
68457;SDS011;65384;52.016;5.428;2023-02-20T11:07:41;19.42;;;6.47;;
68457;SDS011;65384;52.016;5.428;2023-02-20T11:10:06;16.73;;;6.30;;
68457;SDS011;65384;52.016;5.428;2023-02-20T11:12:35;21.38;;;6.28;;
68457;SDS011;65384;52.016;5.428;2023-02-20T11:15:06;20.20;;;6.55;;
68457;SDS011;65384;52.016;5.428;2023-02-20T11:17:34;16.52;;;6.30;;
68457;SDS011;65384;52.016;5.428;2023-02-20T11:20:00;18.58;;;6.60;;
68457;SDS011;65384;52.016;5.428;2023-02-20T11:22:40;14.68;;;5.78;;
68457;SDS011;65384;52.016;5.428;2023-02-20T11:25:26;21.95;;;6.57;;
68457;SDS011;65384;52.016;5.428;2023-02-20T11:28:17;15.13;;;5.95;;
68457;SDS011;65384;52.016;5.428;2023-02-20T11:30:46;13.65;;;5.18;;
68457;SDS011;65384;52.016;5.428;2023-02-20T11:33:23;11.45;;;5.45;;
68457;SDS011;65384;52.016;5.428;2023-02-20T11:35:54;17.10;;;5.95;;
68457;SDS011;65384;52.016;5.428;2023-02-20T11:40:47;15.83;;;5.80;;
68457;SDS011;65384;52.016;5.428;2023-02-20T11:43:37;14.85;;;5.72;;
68457;SDS011;65384;52.016;5.428;2023-02-20T11:46:20;14.15;;;5.45;;
68457;SDS011;65384;52.016;5.428;2023-02-20T11:49:09;14.98;;;5.25;;
68457;SDS011;65384;52.016;5.428;2023-02-20T11:51:44;12.02;;;5.57;;
68457;SDS011;65384;52.016;5.428;2023-02-20T11:54:20;12.00;;;4.65;;
68457;SDS011;65384;52.016;5.428;2023-02-20T11:57:30;14.43;;;5.10;;
68457;SDS011;65384;52.016;5.428;2023-02-20T11:59:40;13.37;;;4.60;;
68457;SDS011;65384;52.016;5.428;2023-02-20T12:12:29;7.20;;;3.38;;
68457;SDS011;65384;52.016;5.428;2023-02-20T12:14:56;12.48;;;4.07;;
68457;SDS011;65384;52.016;5.428;2023-02-20T12:20:02;10.37;;;4.03;;
68457;SDS011;65384;52.016;5.428;2023-02-20T12:22:33;11.88;;;3.92;;
68457;SDS011;65384;52.016;5.428;2023-02-20T12:30:39;10.57;;;3.92;;
68457;SDS011;65384;52.016;5.428;2023-02-20T12:44:42;11.35;;;4.18;;
68457;SDS011;65384;52.016;5.428;2023-02-20T12:47:39;9.15;;;3.60;;
68457;SDS011;65384;52.016;5.428;2023-02-20T12:55:50;11.23;;;3.17;;
68457;SDS011;65384;52.016;5.428;2023-02-20T12:58:37;15.73;;;3.97;;
68457;SDS011;65384;52.016;5.428;2023-02-20T13:01:12;10.98;;;4.30;;
68457;SDS011;65384;52.016;5.428;2023-02-20T13:06:23;10.75;;;3.95;;
68457;SDS011;65384;52.016;5.428;2023-02-20T13:09:34;13.98;;;3.45;;
68457;SDS011;65384;52.016;5.428;2023-02-20T13:11:53;10.02;;;3.97;;
68457;SDS011;65384;52.016;5.428;2023-02-20T13:14:38;10.55;;;3.65;;
68457;SDS011;65384;52.016;5.428;2023-02-20T13:19:56;15.68;;;3.97;;
68457;SDS011;65384;52.016;5.428;2023-02-20T13:22:24;11.88;;;2.95;;
68457;SDS011;65384;52.016;5.428;2023-02-20T13:24:50;10.60;;;3.70;;
68457;SDS011;65384;52.016;5.428;2023-02-20T13:30:28;13.45;;;3.55;;
68457;SDS011;65384;52.016;5.428;2023-02-20T13:35:56;9.77;;;3.50;;
68457;SDS011;65384;52.016;5.428;2023-02-20T13:38:22;16.50;;;3.92;;
68457;SDS011;65384;52.016;5.428;2023-02-20T13:45:46;10.70;;;3.77;;
68457;SDS011;65384;52.016;5.428;2023-02-20T13:53:49;11.73;;;3.97;;
68457;SDS011;65384;52.016;5.428;2023-02-20T13:56:45;15.00;;;4.25;;
68457;SDS011;65384;52.016;5.428;2023-02-20T13:59:16;12.15;;;3.88;;
68457;SDS011;65384;52.016;5.428;2023-02-20T14:04:27;12.00;;;4.00;;
68457;SDS011;65384;52.016;5.428;2023-02-20T14:06:53;12.45;;;4.20;;
68457;SDS011;65384;52.016;5.428;2023-02-20T14:09:20;8.30;;;3.58;;
68457;SDS011;65384;52.016;5.428;2023-02-20T14:11:48;12.82;;;4.15;;
68457;SDS011;65384;52.016;5.428;2023-02-20T14:14:27;15.35;;;3.92;;
68457;SDS011;65384;52.016;5.428;2023-02-20T14:17:04;8.75;;;4.00;;
68457;SDS011;65384;52.016;5.428;2023-02-20T14:19:44;14.05;;;4.47;;
68457;SDS011;65384;52.016;5.428;2023-02-20T14:24:45;13.38;;;4.78;;
68457;SDS011;65384;52.016;5.428;2023-02-20T14:27:23;11.57;;;4.22;;
68457;SDS011;65384;52.016;5.428;2023-02-20T14:30:02;11.05;;;4.60;;
68457;SDS011;65384;52.016;5.428;2023-02-20T14:32:29;10.25;;;3.95;;
68457;SDS011;65384;52.016;5.428;2023-02-20T14:40:03;14.18;;;4.75;;
68457;SDS011;65384;52.016;5.428;2023-02-20T14:42:33;23.88;;;6.97;;
68457;SDS011;65384;52.016;5.428;2023-02-20T14:45:06;13.82;;;4.47;;
68457;SDS011;65384;52.016;5.428;2023-02-20T14:47:48;12.25;;;4.45;;
68457;SDS011;65384;52.016;5.428;2023-02-20T14:53:02;9.40;;;4.38;;
68457;SDS011;65384;52.016;5.428;2023-02-20T14:55:30;13.05;;;4.93;;
68457;SDS011;65384;52.016;5.428;2023-02-20T14:57:55;13.45;;;4.53;;
68457;SDS011;65384;52.016;5.428;2023-02-20T15:00:29;15.90;;;4.60;;
68457;SDS011;65384;52.016;5.428;2023-02-20T15:02:57;12.38;;;5.10;;
68457;SDS011;65384;52.016;5.428;2023-02-20T15:05:30;10.05;;;4.55;;
68457;SDS011;65384;52.016;5.428;2023-02-20T15:08:05;9.93;;;3.75;;
68457;SDS011;65384;52.016;5.428;2023-02-20T15:10:38;12.25;;;4.57;;
68457;SDS011;65384;52.016;5.428;2023-02-20T15:13:08;14.30;;;4.47;;
68457;SDS011;65384;52.016;5.428;2023-02-20T15:15:36;13.18;;;4.50;;
68457;SDS011;65384;52.016;5.428;2023-02-20T15:18:07;11.10;;;4.47;;
68457;SDS011;65384;52.016;5.428;2023-02-20T15:20:38;14.30;;;4.32;;
68457;SDS011;65384;52.016;5.428;2023-02-20T15:23:07;16.13;;;4.70;;
68457;SDS011;65384;52.016;5.428;2023-02-20T15:25:42;15.27;;;4.35;;
68457;SDS011;65384;52.016;5.428;2023-02-20T15:33:32;13.95;;;5.00;;
68457;SDS011;65384;52.016;5.428;2023-02-20T15:35:58;12.73;;;4.88;;
68457;SDS011;65384;52.016;5.428;2023-02-20T15:38:28;10.77;;;4.40;;
68457;SDS011;65384;52.016;5.428;2023-02-20T15:40:56;12.27;;;4.13;;
68457;SDS011;65384;52.016;5.428;2023-02-20T15:43:22;9.77;;;3.88;;
68457;SDS011;65384;52.016;5.428;2023-02-20T15:45:47;10.25;;;4.40;;
68457;SDS011;65384;52.016;5.428;2023-02-20T15:48:13;14.27;;;4.10;;
68457;SDS011;65384;52.016;5.428;2023-02-20T15:50:38;12.88;;;4.70;;
68457;SDS011;65384;52.016;5.428;2023-02-20T15:53:03;9.27;;;4.15;;
68457;SDS011;65384;52.016;5.428;2023-02-20T15:55:30;14.25;;;4.82;;
68457;SDS011;65384;52.016;5.428;2023-02-20T15:57:57;8.65;;;4.18;;
68457;SDS011;65384;52.016;5.428;2023-02-20T16:00:25;10.25;;;4.15;;
68457;SDS011;65384;52.016;5.428;2023-02-20T16:02:52;12.40;;;4.63;;
68457;SDS011;65384;52.016;5.428;2023-02-20T16:05:18;12.18;;;3.70;;
68457;SDS011;65384;52.016;5.428;2023-02-20T16:07:43;13.43;;;4.38;;
68457;SDS011;65384;52.016;5.428;2023-02-20T16:10:09;10.85;;;4.15;;
68457;SDS011;65384;52.016;5.428;2023-02-20T16:12:35;11.20;;;4.25;;
68457;SDS011;65384;52.016;5.428;2023-02-20T16:15:02;11.18;;;4.20;;
68457;SDS011;65384;52.016;5.428;2023-02-20T16:17:28;10.68;;;3.65;;
68457;SDS011;65384;52.016;5.428;2023-02-20T16:19:56;9.70;;;4.50;;
68457;SDS011;65384;52.016;5.428;2023-02-20T16:22:22;13.27;;;4.90;;
68457;SDS011;65384;52.016;5.428;2023-02-20T16:24:47;11.60;;;5.03;;
68457;SDS011;65384;52.016;5.428;2023-02-20T16:27:34;12.07;;;4.32;;
68457;SDS011;65384;52.016;5.428;2023-02-20T16:29:58;17.25;;;5.35;;
68457;SDS011;65384;52.016;5.428;2023-02-20T16:32:27;9.60;;;4.30;;
68457;SDS011;65384;52.016;5.428;2023-02-20T16:34:54;14.05;;;4.47;;
68457;SDS011;65384;52.016;5.428;2023-02-20T16:37:21;11.35;;;5.10;;
68457;SDS011;65384;52.016;5.428;2023-02-20T16:39:47;10.98;;;4.90;;
68457;SDS011;65384;52.016;5.428;2023-02-20T16:42:26;14.02;;;4.82;;
68457;SDS011;65384;52.016;5.428;2023-02-20T16:44:53;13.65;;;5.57;;
68457;SDS011;65384;52.016;5.428;2023-02-20T16:47:23;10.30;;;4.78;;
68457;SDS011;65384;52.016;5.428;2023-02-20T16:49:50;11.52;;;5.15;;
68457;SDS011;65384;52.016;5.428;2023-02-20T16:52:27;17.17;;;5.65;;
68457;SDS011;65384;52.016;5.428;2023-02-20T16:54:54;14.95;;;5.43;;
68457;SDS011;65384;52.016;5.428;2023-02-20T16:57:20;12.05;;;5.15;;
68457;SDS011;65384;52.016;5.428;2023-02-20T16:59:47;11.65;;;4.88;;
68457;SDS011;65384;52.016;5.428;2023-02-20T17:02:15;16.00;;;5.22;;
68457;SDS011;65384;52.016;5.428;2023-02-20T17:04:41;11.70;;;5.60;;
68457;SDS011;65384;52.016;5.428;2023-02-20T17:07:07;15.48;;;5.63;;
68457;SDS011;65384;52.016;5.428;2023-02-20T17:09:34;15.75;;;5.80;;
68457;SDS011;65384;52.016;5.428;2023-02-20T17:12:00;11.38;;;5.50;;